Terminal Aerodrome Forecast
Issued by NWS Tampa Bay Area, FL

Home | Current Version | Previous Version | Text Only | Print | Product List | Glossary On
Versions: 1 2 3 4 5 6 7 8 9 10 11 12 13 14
000
FTUS42 KTBW 261128
TAFSRQ
TAF
KSRQ 261128Z 2612/2712 29005KT P6SM SCT025 SCT250
     FM261500 26008KT P6SM SCT030 BKN250
     FM261800 27011KT P6SM SCT045 BKN250
     FM270100 25007KT P6SM FEW030 SCT250=

USA.gov is the U.S. government's official web portal to all federal, state and local government web resources and services.